Time;durP1;ratioP1;P1;durP2;ratioP2;P2;SDS_P1;SDS_P2;PMS_P1;PMS_P2;Temp;Humidity;BMP_temperature;BMP_pressure;BME280_temperature;BME280_humidity;BME280_pressure;Samples;Min_cycle;Max_cycle;Signal;HPM_P1;HPM_P2
2022/06/10 00:00:34;;;;;;;11.07;1.98;;;;;;;17.78;51.84;99233.13;5091534;28;20017;-51
2022/06/10 00:03:00;;;;;;;8.77;2.63;;;;;;;17.95;51.69;99237.75;5091456;28;20063;-50
2022/06/10 00:05:30;;;;;;;8.02;2.05;;;;;;;18.06;50.88;99242.22;5091393;28;20055;-51
2022/06/10 00:07:56;;;;;;;12.85;2.90;;;;;;;18.04;50.95;99238.19;5091448;28;20044;-51
2022/06/10 00:10:45;;;;;;;11.60;2.15;;;;;;;17.85;51.14;99242.84;5091422;28;20031;-51
2022/06/10 00:13:14;;;;;;;9.60;1.92;;;;;;;17.62;51.46;99247.13;5091344;28;20024;-50
2022/06/10 00:15:41;;;;;;;8.00;1.52;;;;;;;17.39;51.80;99247.16;5091356;28;20047;-50
2022/06/10 00:18:07;;;;;;;6.78;2.00;;;;;;;17.14;52.31;99251.63;5090041;28;20111;-51
2022/06/10 00:20:33;;;;;;;10.20;1.80;;;;;;;16.96;52.50;99252.53;5094846;28;20024;-51
2022/06/10 00:22:59;;;;;;;10.52;2.38;;;;;;;16.78;53.05;99253.38;5093730;28;20512;-50
2022/06/10 00:25:26;;;;;;;10.07;1.80;;;;;;;16.63;53.52;99249.53;5093547;28;20035;-51
2022/06/10 00:27:52;;;;;;;5.70;1.88;;;;;;;16.49;54.13;99255.00;5093619;28;20016;-51
2022/06/10 00:30:22;;;;;;;5.60;1.73;;;;;;;16.27;54.98;99249.38;5093862;28;20071;-51
2022/06/10 00:32:48;;;;;;;6.95;1.95;;;;;;;16.25;55.23;99245.34;5094887;28;20020;-51
2022/06/10 00:35:14;;;;;;;9.80;2.05;;;;;;;16.47;54.53;99248.31;5093527;28;20446;-51
2022/06/10 00:37:40;;;;;;;8.15;1.88;;;;;;;16.68;54.51;99249.66;5093117;28;20496;-51
2022/06/10 00:40:09;;;;;;;7.93;2.08;;;;;;;16.94;54.08;99245.81;5094688;28;20501;-51
2022/06/10 00:42:37;;;;;;;6.55;1.65;;;;;;;17.20;53.42;99241.13;5093327;28;20039;-51
2022/06/10 00:45:06;;;;;;;7.72;2.10;;;;;;;17.44;52.69;99240.09;5094657;28;20687;-51
2022/06/10 00:47:38;;;;;;;8.93;2.85;;;;;;;17.62;52.26;99243.66;5094564;28;20027;-51
2022/06/10 00:50:28;;;;;;;9.35;1.83;;;;;;;17.67;51.54;99239.28;5093170;28;20031;-51
2022/06/10 00:53:01;;;;;;;10.55;2.78;;;;;;;17.58;52.04;99230.84;5094537;28;20062;-51
2022/06/10 00:55:29;;;;;;;7.63;1.85;;;;;;;17.55;51.74;99233.19;5094533;28;20102;-52
2022/06/10 00:58:26;;;;;;;7.03;1.88;;;;;;;17.41;52.23;99240.56;5093056;28;20028;-51
2022/06/10 01:00:52;;;;;;;8.77;2.25;;;;;;;17.42;52.33;99236.84;5092809;28;20065;-51
2022/06/10 01:03:18;;;;;;;7.18;1.60;;;;;;;17.50;51.93;99241.81;5094183;28;20098;-51
2022/06/10 01:05:44;;;;;;;13.65;2.42;;;;;;;17.48;52.01;99235.13;5094118;28;20028;-51
2022/06/10 01:08:15;;;;;;;10.90;1.85;;;;;;;17.49;51.94;99234.91;5094176;28;20024;-52
2022/06/10 01:11:09;;;;;;;9.52;2.03;;;;;;;17.48;52.03;99233.28;5094419;28;20020;-52
2022/06/10 01:13:54;;;;;;;7.00;1.85;;;;;;;17.47;51.96;99228.22;5075857;28;20524;-51
2022/06/10 01:16:46;;;;;;;12.05;2.50;;;;;;;17.61;51.86;99237.56;5093008;28;20494;-50
2022/06/10 01:19:37;;;;;;;6.38;1.65;;;;;;;17.74;51.34;99239.16;5093979;28;20038;-51
2022/06/10 01:22:21;;;;;;;6.43;2.55;;;;;;;17.53;51.47;99243.22;5093849;28;20149;-51
2022/06/10 01:24:55;;;;;;;9.70;2.30;;;;;;;16.99;52.98;99239.84;5093771;28;20032;-50
2022/06/10 01:27:48;;;;;;;6.80;1.80;;;;;;;16.35;54.58;99235.81;5093756;28;20021;-51
2022/06/10 01:30:44;;;;;;;8.93;2.15;;;;;;;15.84;56.07;99238.91;5092764;28;20032;-51
2022/06/10 01:33:28;;;;;;;8.52;1.65;;;;;;;15.64;56.35;99239.91;5093728;28;20494;-51
2022/06/10 01:36:02;;;;;;;7.00;1.67;;;;;;;15.51;56.62;99232.09;5093576;28;20024;-51
2022/06/10 01:38:40;;;;;;;6.63;1.75;;;;;;;15.34;57.33;99240.59;5092024;28;20431;-51
2022/06/10 01:41:29;;;;;;;6.45;1.88;;;;;;;15.27;57.83;99239.84;5092168;28;20107;-51
2022/06/10 01:44:36;;;;;;;6.90;1.70;;;;;;;15.22;57.99;99244.19;5081354;28;20471;-51
2022/06/10 01:47:10;;;;;;;10.02;1.90;;;;;;;15.35;58.17;99241.41;5092956;28;20071;-50
2022/06/10 01:49:44;;;;;;;12.65;2.17;;;;;;;15.87;57.34;99241.91;5093376;28;20024;-51
2022/06/10 01:52:19;;;;;;;12.35;2.08;;;;;;;16.33;56.03;99232.59;5093412;28;20040;-51
2022/06/10 01:55:18;;;;;;;12.80;2.47;;;;;;;16.68;55.00;99239.03;5093327;28;20028;-51
2022/06/10 01:57:56;;;;;;;10.05;3.38;;;;;;;16.81;54.63;99238.88;5088269;28;20039;-51
2022/06/10 02:00:29;;;;;;;8.35;1.98;;;;;;;16.62;54.55;99245.25;5093201;28;20035;-50
2022/06/10 02:03:04;;;;;;;12.52;2.42;;;;;;;16.47;55.20;99237.72;5091846;28;20496;-51
2022/06/10 02:05:35;;;;;;;8.48;2.20;;;;;;;16.49;55.36;99241.75;5092981;28;20028;-51
2022/06/10 02:08:14;;;;;;;8.02;1.98;;;;;;;16.20;55.37;99237.25;5093064;28;20455;-51
2022/06/10 02:10:51;;;;;;;13.00;1.92;;;;;;;15.80;56.35;99246.50;5091628;28;20024;-51
2022/06/10 02:13:22;;;;;;;8.13;2.05;;;;;;;15.53;57.00;99237.97;5092918;28;20024;-51
2022/06/10 02:15:52;;;;;;;12.60;2.13;;;;;;;15.44;57.43;99245.38;5091557;28;20024;-51
2022/06/10 02:18:34;;;;;;;10.77;1.73;;;;;;;15.44;57.49;99252.53;5074625;28;20401;-51
2022/06/10 02:21:18;;;;;;;11.93;2.65;;;;;;;15.26;58.01;99248.81;5092827;28;20455;-51
2022/06/10 02:24:03;;;;;;;8.45;1.98;;;;;;;15.17;58.18;99247.44;5091449;28;20493;-50
2022/06/10 02:26:34;;;;;;;7.93;1.77;;;;;;;15.18;58.51;99247.25;5091469;28;20043;-51
2022/06/10 02:29:06;;;;;;;9.23;1.70;;;;;;;15.25;58.42;99238.44;5092727;28;20035;-51
2022/06/10 02:31:42;;;;;;;5.90;1.60;;;;;;;15.26;58.38;99248.00;5092619;28;20028;-51
2022/06/10 02:34:08;;;;;;;7.72;1.52;;;;;;;15.21;58.15;99248.63;5091283;28;20402;-51
2022/06/10 02:36:37;;;;;;;6.75;1.70;;;;;;;15.19;58.16;99250.69;5092439;28;20031;-51
2022/06/10 02:39:14;;;;;;;5.93;1.55;;;;;;;15.02;58.12;99254.91;5092267;28;20067;-51
2022/06/10 02:41:50;;;;;;;6.75;1.60;;;;;;;14.85;59.09;99257.25;5090848;28;20485;-51
2022/06/10 02:44:44;;;;;;;6.28;1.70;;;;;;;14.78;59.05;99254.66;5092473;28;20028;-51
2022/06/10 02:47:20;;;;;;;4.85;1.80;;;;;;;14.57;59.47;99253.19;5091005;28;20062;-51
2022/06/10 02:49:46;;;;;;;12.77;2.10;;;;;;;14.18;60.57;99261.06;5092302;28;20496;-50
2022/06/10 02:52:15;;;;;;;4.05;1.70;;;;;;;14.02;61.25;99250.94;5090895;28;20032;-51
2022/06/10 02:54:45;;;;;;;9.43;2.17;;;;;;;13.85;61.63;99255.06;5092175;28;20031;-50
2022/06/10 03:03:19;;;;;;;12.30;2.75;;;;;;;13.79;62.37;99268.06;5092133;28;20528;-50
2022/06/10 03:05:58;;;;;;;5.10;1.75;;;;;;;13.77;62.06;99270.09;5090709;28;20386;-50
2022/06/10 03:08:50;;;;;;;9.38;2.15;;;;;;;13.64;63.21;99269.31;5091975;28;20513;-51
2022/06/10 03:11:18;;;;;;;7.38;1.73;;;;;;;13.71;62.48;99264.84;5092018;28;20028;-51
2022/06/10 03:13:46;;;;;;;6.22;1.77;;;;;;;13.72;62.54;99263.81;5091959;28;20028;-51
2022/06/10 03:16:38;;;;;;;5.18;1.63;;;;;;;13.75;62.95;99269.50;5090562;28;20586;-50
2022/06/10 03:19:19;;;;;;;8.75;2.13;;;;;;;13.67;63.18;99269.72;5090660;28;20028;-50
2022/06/10 03:21:56;;;;;;;14.45;2.25;;;;;;;13.61;63.26;99267.91;5091875;28;20031;-50
2022/06/10 03:24:47;;;;;;;10.07;1.50;;;;;;;13.58;63.14;99268.28;5090524;28;20031;-50
2022/06/10 03:27:33;;;;;;;6.57;1.70;;;;;;;13.45;63.26;99266.50;5090569;28;20550;-50
2022/06/10 03:30:09;;;;;;;5.20;1.63;;;;;;;13.34;63.47;99269.75;5091891;28;20028;-50
2022/06/10 03:32:50;;;;;;;9.68;1.90;;;;;;;13.35;63.99;99269.53;5090452;28;20027;-50
2022/06/10 03:35:27;;;;;;;7.07;1.80;;;;;;;13.41;64.34;99275.84;5091720;28;20012;-50
2022/06/10 03:37:55;;;;;;;6.95;1.80;;;;;;;13.39;63.56;99275.22;5091482;28;20541;-50
2022/06/10 03:40:25;;;;;;;9.82;1.70;;;;;;;13.14;64.25;99272.38;5090312;28;20098;-50
2022/06/10 03:42:55;;;;;;;6.25;1.48;;;;;;;12.95;64.74;99272.13;5090430;28;20032;-50
2022/06/10 03:45:40;;;;;;;7.78;2.00;;;;;;;12.95;65.24;99276.59;5091644;28;20481;-51
2022/06/10 03:48:07;;;;;;;10.45;1.85;;;;;;;12.99;65.17;99269.91;5090435;28;20056;-50
2022/06/10 03:50:38;;;;;;;11.73;2.08;;;;;;;13.03;65.43;99271.13;5091632;28;20551;-50
2022/06/10 03:53:05;;;;;;;13.27;2.20;;;;;;;13.14;65.53;99281.09;5091678;28;20499;-50
2022/06/10 03:55:31;;;;;;;11.63;1.92;;;;;;;13.40;65.00;99279.50;5095192;28;20031;-50
2022/06/10 03:57:57;;;;;;;6.97;1.85;;;;;;;13.42;64.57;99288.03;5094217;28;20032;-51
2022/06/10 04:00:26;;;;;;;15.93;1.67;;;;;;;13.57;63.88;99285.16;5095410;28;20106;-50
2022/06/10 04:02:52;;;;;;;18.15;2.50;;;;;;;13.65;64.02;99282.31;5095414;28;20035;-50
2022/06/10 04:05:19;;;;;;;15.63;2.22;;;;;;;13.74;64.10;99281.06;5095568;28;20028;-50
2022/06/10 04:07:45;;;;;;;8.32;2.22;;;;;;;13.95;63.38;99297.66;5095366;28;20105;-51
2022/06/10 04:10:21;;;;;;;10.25;1.95;;;;;;;13.96;62.65;99288.72;5095339;28;20016;-50
2022/06/10 04:12:47;;;;;;;7.93;1.60;;;;;;;13.92;62.82;99292.78;5094010;28;20035;-50
2022/06/10 04:15:16;;;;;;;8.73;1.67;;;;;;;13.85;62.65;99289.38;5093852;28;20115;-51
2022/06/10 04:17:49;;;;;;;9.48;1.90;;;;;;;13.75;62.97;99295.06;5095150;28;20043;-50
2022/06/10 04:20:18;;;;;;;11.38;2.25;;;;;;;13.85;62.88;99297.28;5095080;28;20081;-51
2022/06/10 04:22:44;;;;;;;11.48;2.22;;;;;;;14.09;62.30;99298.44;5093734;28;20024;-51
2022/06/10 04:25:10;;;;;;;6.45;1.83;;;;;;;14.72;60.85;99297.78;5094876;28;20032;-49
2022/06/10 04:27:36;;;;;;;6.80;1.73;;;;;;;15.54;58.36;99303.91;5093679;28;20143;-50
2022/06/10 04:30:04;;;;;;;11.80;2.00;;;;;;;16.36;56.29;99302.88;5094872;28;20027;-51
2022/06/10 04:32:30;;;;;;;10.45;1.73;;;;;;;17.04;54.68;99295.66;5094665;28;20042;-50
2022/06/10 04:34:56;;;;;;;8.77;1.92;;;;;;;17.43;52.47;99290.75;5094736;28;20020;-51
2022/06/10 04:37:22;;;;;;;7.72;1.67;;;;;;;17.66;51.47;99293.41;5093248;28;20062;-50
2022/06/10 04:39:48;;;;;;;12.98;2.00;;;;;;;17.62;51.32;99297.56;5093469;28;20039;-50
2022/06/10 04:42:13;;;;;;;9.98;1.58;;;;;;;17.59;51.59;99295.38;5094660;28;20020;-51
2022/06/10 04:44:39;;;;;;;10.60;2.10;;;;;;;17.85;51.69;99298.59;5094554;28;20112;-51
2022/06/10 04:47:07;;;;;;;10.88;1.70;;;;;;;18.19;50.12;99293.47;5094596;28;20062;-50
2022/06/10 04:49:35;;;;;;;12.00;2.55;;;;;;;18.67;49.33;99294.91;5094514;28;20032;-51
2022/06/10 04:52:01;;;;;;;5.22;1.67;;;;;;;19.06;47.81;99289.78;5094465;28;20024;-50
2022/06/10 04:54:26;;;;;;;9.35;2.25;;;;;;;19.41;47.29;99296.72;5094457;28;20397;-51
2022/06/10 04:56:52;;;;;;;11.65;1.75;;;;;;;19.99;45.62;99300.75;5093057;28;20084;-51
2022/06/10 04:59:18;;;;;;;12.38;2.03;;;;;;;20.56;44.34;99294.22;5094307;28;20398;-50
2022/06/10 05:01:47;;;;;;;11.38;2.03;;;;;;;20.96;43.16;99285.03;5094320;28;20085;-51
2022/06/10 05:04:12;;;;;;;8.98;1.80;;;;;;;21.21;42.43;99289.78;5094188;28;20077;-51
2022/06/10 05:06:38;;;;;;;7.50;1.60;;;;;;;21.61;41.08;99288.50;5094039;28;20405;-50
2022/06/10 05:09:04;;;;;;;9.45;2.00;;;;;;;21.77;40.41;99286.69;5094167;28;20020;-51
2022/06/10 05:11:29;;;;;;;8.35;2.15;;;;;;;22.00;40.48;99292.72;5094127;28;20028;-51
2022/06/10 05:13:56;;;;;;;5.95;1.67;;;;;;;22.28;40.35;99286.16;5094066;28;20020;-50
2022/06/10 05:16:22;;;;;;;10.13;1.80;;;;;;;22.43;39.43;99283.50;5092607;28;20032;-51
2022/06/10 05:18:48;;;;;;;8.32;1.80;;;;;;;22.99;38.92;99282.00;5093934;28;20025;-50
2022/06/10 05:21:14;;;;;;;9.82;2.40;;;;;;;23.24;37.73;99276.69;5093876;28;20393;-51
2022/06/10 05:23:44;;;;;;;8.70;1.80;;;;;;;22.71;38.37;99279.56;5093875;28;20028;-48
2022/06/10 05:26:14;;;;;;;11.88;2.60;;;;;;;22.30;39.49;99274.13;5093736;28;20024;-48
2022/06/10 05:28:40;;;;;;;5.72;1.60;;;;;;;22.26;39.63;99278.41;5092470;28;20512;-48
2022/06/10 05:31:06;;;;;;;8.57;1.75;;;;;;;22.33;39.62;99278.13;5093761;28;20361;-48
2022/06/10 05:36:17;;;;;;;7.93;1.65;;;;;;;24.39;37.18;99284.09;5093684;28;20027;-46
2022/06/10 05:38:45;;;;;;;9.40;1.48;;;;;;;24.99;34.71;99279.47;5093376;28;20040;-47
2022/06/10 05:43:55;;;;;;;9.13;2.28;;;;;;;26.16;33.69;99271.31;5093903;28;20035;-46
2022/06/10 05:46:22;;;;;;;15.13;1.88;;;;;;;27.05;32.45;99273.25;5092077;28;20032;-47
2022/06/10 05:48:50;;;;;;;8.50;2.00;;;;;;;27.82;31.36;99271.09;5093530;28;20105;-46
2022/06/10 05:51:16;;;;;;;14.93;2.28;;;;;;;28.88;29.40;99264.47;5092086;28;20107;-47
2022/06/10 05:53:41;;;;;;;5.95;1.77;;;;;;;29.93;28.29;99270.44;5093383;28;20560;-47
2022/06/10 05:56:07;;;;;;;12.77;2.03;;;;;;;30.84;26.77;99273.38;5093252;28;20066;-47
2022/06/10 05:58:33;;;;;;;9.07;2.85;;;;;;;31.14;26.28;99268.88;5093223;28;20107;-47
2022/06/10 06:00:58;;;;;;;7.47;1.88;;;;;;;31.59;25.64;99268.44;5093384;28;20099;-47
2022/06/10 06:03:24;;;;;;;11.70;1.80;;;;;;;32.00;25.57;99271.63;5093381;28;20035;-47
2022/06/10 06:05:53;;;;;;;14.20;2.30;;;;;;;32.62;24.43;99270.06;5093015;28;20020;-47
2022/06/10 06:08:18;;;;;;;13.48;2.30;;;;;;;32.71;24.52;99281.66;5091667;28;20024;-48
2022/06/10 06:10:44;;;;;;;12.70;2.03;;;;;;;32.86;24.67;99287.59;5092942;28;20096;-47
2022/06/10 06:13:10;;;;;;;7.50;2.03;;;;;;;33.11;23.58;99274.91;5093186;28;20055;-48
2022/06/10 06:15:41;;;;;;;9.80;1.88;;;;;;;33.24;23.03;99279.22;5092838;28;20521;-47
2022/06/10 06:18:07;;;;;;;9.90;2.25;;;;;;;33.46;23.17;99279.94;5092360;28;20375;-48
2022/06/10 06:20:32;;;;;;;11.55;1.80;;;;;;;33.62;22.58;99278.16;5092797;28;20028;-49
2022/06/10 06:22:59;;;;;;;13.40;2.53;;;;;;;34.00;22.37;99274.28;5092831;28;20096;-48
2022/06/10 06:25:25;;;;;;;9.73;2.25;;;;;;;34.19;21.36;99269.06;5091247;28;20020;-48
2022/06/10 06:27:50;;;;;;;16.83;1.80;;;;;;;34.35;21.22;99271.03;5092683;28;20028;-49
2022/06/10 06:30:30;;;;;;;10.23;1.60;;;;;;;34.60;21.00;99288.91;5092622;28;20065;-49
2022/06/10 06:32:56;;;;;;;11.38;2.33;;;;;;;34.55;21.15;99282.91;5092686;28;20158;-48
2022/06/10 06:35:23;;;;;;;8.43;1.80;;;;;;;34.63;21.31;99287.41;5092428;28;20579;-47
2022/06/10 06:37:49;;;;;;;21.00;3.60;;;;;;;34.99;20.84;99286.50;5090913;28;20401;-49
2022/06/10 06:40:15;;;;;;;13.98;2.00;;;;;;;35.16;20.81;99282.69;5092391;28;20021;-49
2022/06/10 06:42:41;;;;;;;9.43;2.00;;;;;;;34.91;20.28;99281.97;5092435;28;20034;-50
2022/06/10 06:45:08;;;;;;;15.68;3.25;;;;;;;34.72;21.22;99287.31;5090931;28;20460;-48
2022/06/10 06:47:35;;;;;;;10.38;1.67;;;;;;;35.18;20.59;99294.03;5092343;28;20103;-47
2022/06/10 06:50:01;;;;;;;9.13;1.63;;;;;;;35.77;20.09;99289.66;5092270;28;20024;-47
2022/06/10 06:52:27;;;;;;;12.00;1.88;;;;;;;36.36;19.44;99285.13;5092222;28;20020;-46
2022/06/10 06:54:52;;;;;;;10.00;1.98;;;;;;;36.27;19.64;99290.00;5092228;28;20020;-47
2022/06/10 06:57:20;;;;;;;6.57;1.67;;;;;;;36.01;19.75;99282.38;5092422;28;20035;-47
2022/06/10 06:59:46;;;;;;;3.92;1.42;;;;;;;36.15;19.42;99292.88;5092420;28;20055;-48
2022/06/10 07:02:12;;;;;;;13.57;2.60;;;;;;;36.05;19.54;99285.19;5092076;28;20020;-48
2022/06/10 07:04:38;;;;;;;14.07;2.30;;;;;;;36.03;19.62;99290.22;5091958;28;20118;-49
2022/06/10 07:07:04;;;;;;;6.47;1.65;;;;;;;36.14;19.70;99292.06;5090699;28;20024;-49
2022/06/10 07:09:30;;;;;;;11.60;2.63;;;;;;;36.31;19.52;99287.34;5092035;28;20436;-49
2022/06/10 07:11:56;;;;;;;11.70;1.98;;;;;;;36.26;19.38;99295.81;5091930;28;20024;-50
2022/06/10 07:14:25;;;;;;;12.57;2.95;;;;;;;36.37;19.36;99302.31;5091962;28;20087;-50
2022/06/10 07:16:52;;;;;;;20.08;2.83;;;;;;;36.59;19.50;99295.34;5090644;28;20032;-50
2022/06/10 07:19:21;;;;;;;11.15;3.13;;;;;;;36.55;19.57;99299.94;5091822;28;20020;-50
2022/06/10 07:21:48;;;;;;;23.52;3.22;;;;;;;36.22;19.46;99295.75;5090568;28;20027;-50
2022/06/10 07:24:13;;;;;;;19.73;1.92;;;;;;;35.82;20.16;99296.78;5091874;28;20505;-50
2022/06/10 07:26:39;;;;;;;22.73;3.30;;;;;;;35.41;20.26;99299.66;5091775;28;20101;-50
2022/06/10 07:29:06;;;;;;;9.98;2.40;;;;;;;34.68;20.97;99295.41;5093293;28;20034;-48
2022/06/10 07:31:34;;;;;;;15.45;2.58;;;;;;;34.40;21.04;99296.13;5095946;28;20027;-48
2022/06/10 07:34:00;;;;;;;7.03;2.10;;;;;;;34.14;21.11;99298.47;5096261;28;20036;-49
2022/06/10 07:36:26;;;;;;;12.13;2.20;;;;;;;34.20;21.34;99297.09;5096245;28;20546;-46
2022/06/10 07:38:53;;;;;;;10.38;1.98;;;;;;;34.32;21.19;99304.44;5095728;28;20456;-49
2022/06/10 07:44:03;;;;;;;10.40;2.35;;;;;;;34.88;21.23;99309.97;5095875;28;20034;-49
2022/06/10 07:46:29;;;;;;;13.10;2.15;;;;;;;35.31;20.57;99294.75;5095648;28;20044;-47
2022/06/10 07:48:55;;;;;;;9.68;2.38;;;;;;;35.59;20.17;99294.66;5095953;28;20469;-49
2022/06/10 07:51:23;;;;;;;7.38;2.03;;;;;;;36.26;19.67;99291.16;5095653;28;20035;-48
2022/06/10 07:53:49;;;;;;;10.73;2.17;;;;;;;36.69;19.01;99283.06;5095667;28;20106;-47
2022/06/10 07:56:17;;;;;;;11.15;1.88;;;;;;;37.51;18.58;99294.69;5095515;28;20050;-48
2022/06/10 07:58:44;;;;;;;20.00;3.78;;;;;;;38.36;17.74;99292.44;5095451;28;20028;-49
2022/06/10 08:01:11;;;;;;;35.90;4.70;;;;;;;38.91;17.03;99278.19;5095486;28;20104;-48
2022/06/10 08:03:38;;;;;;;40.58;5.35;;;;;;;39.18;16.44;99283.59;5095476;28;20068;-48
2022/06/10 08:06:04;;;;;;;36.38;4.45;;;;;;;39.31;16.28;99289.56;5095324;28;20020;-48
2022/06/10 08:08:30;;;;;;;45.30;5.75;;;;;;;38.94;16.81;99284.91;5094032;28;20410;-47
2022/06/10 08:10:57;;;;;;;30.23;4.47;;;;;;;38.92;16.59;99288.00;5095255;28;20050;-49
2022/06/10 08:13:24;;;;;;;22.42;3.25;;;;;;;39.27;16.48;99280.50;5095163;28;20043;-48
2022/06/10 08:15:50;;;;;;;11.25;2.50;;;;;;;39.31;15.78;99279.38;5093889;28;20035;-49
2022/06/10 08:18:19;;;;;;;16.27;2.75;;;;;;;39.46;15.78;99277.56;5095140;28;20024;-47
2022/06/10 08:23:32;;;;;;;15.80;3.03;;;;;;;39.87;15.27;99280.22;5095389;28;20397;-47
2022/06/10 08:26:00;;;;;;;8.88;1.85;;;;;;;39.74;15.52;99276.97;5094916;28;20026;-47
2022/06/10 08:28:27;;;;;;;7.72;1.70;;;;;;;40.27;15.60;99272.19;5094994;28;20055;-48
2022/06/10 08:30:53;;;;;;;11.73;2.15;;;;;;;40.84;15.15;99268.84;5095194;28;20052;-49
2022/06/10 08:33:19;;;;;;;8.93;2.08;;;;;;;41.07;14.74;99261.03;5094841;28;20024;-49
2022/06/10 08:35:48;;;;;;;9.25;2.00;;;;;;;41.19;14.66;99268.13;5094885;28;20417;-48
2022/06/10 08:38:19;;;;;;;13.82;2.30;;;;;;;40.88;14.83;99264.13;5093283;28;20036;-48
2022/06/10 08:41:13;;;;;;;16.30;2.85;;;;;;;41.18;14.90;99260.28;5094276;28;20055;-48
2022/06/10 08:43:38;;;;;;;;;;;;;;;41.51;14.76;99268.13;5095111;28;20022;-48
2022/06/10 08:46:31;;;;;;;10.27;2.25;;;;;;;41.17;14.82;99270.47;5094803;28;19919;-50
2022/06/10 08:49:15;;;;;;;12.52;2.40;;;;;;;41.18;14.73;99263.81;5093309;28;20105;-49
2022/06/10 08:51:49;;;;;;;;;;;;;;;41.31;15.04;99264.19;5095021;28;20073;-46
2022/06/10 08:54:22;;;;;;;12.18;1.80;;;;;;;40.73;14.32;99253.09;5094476;28;19908;-47
2022/06/10 08:56:50;;;;;;;15.70;1.77;;;;;;;40.57;14.19;99260.91;5094523;28;20028;-47
2022/06/10 08:59:23;;;;;;;12.70;2.35;;;;;;;40.49;14.07;99264.81;5094395;28;20028;-49
2022/06/10 09:02:08;;;;;;;28.83;2.80;;;;;;;40.24;13.72;99254.47;5094359;28;20024;-49
2022/06/10 09:04:37;;;;;;;14.23;1.77;;;;;;;39.43;13.83;99256.34;5083358;28;20059;-48
2022/06/10 09:07:11;;;;;;;19.50;3.33;;;;;;;38.85;14.83;99257.75;5094077;28;20035;-50
2022/06/10 09:09:40;;;;;;;6.60;1.33;;;;;;;38.30;15.69;99258.28;5092947;28;20501;-48
2022/06/10 09:12:14;;;;;;;7.30;1.83;;;;;;;37.95;15.64;99264.06;5092784;28;20107;-50
2022/06/10 09:14:40;;;;;;;4.43;1.55;;;;;;;38.29;16.18;99256.69;5094179;28;20099;-49
2022/06/10 09:17:20;;;;;;;11.82;2.35;;;;;;;38.57;16.00;99258.22;5094001;28;20389;-47
2022/06/10 09:20:02;;;;;;;7.85;1.58;;;;;;;38.95;15.33;99267.25;5092765;28;20082;-48
2022/06/10 09:22:56;;;;;;;7.93;1.92;;;;;;;39.27;15.16;99253.84;5094177;28;20405;-49
2022/06/10 09:25:31;;;;;;;16.85;2.50;;;;;;;39.11;15.75;99256.06;5093845;28;20028;-47
2022/06/10 09:28:01;;;;;;;13.55;1.88;;;;;;;39.33;15.01;99252.31;5092542;28;20032;-48
2022/06/10 09:31:03;;;;;;;17.50;1.80;;;;;;;39.19;14.83;99265.16;5093783;28;20032;-49
2022/06/10 09:33:38;;;;;;;14.30;2.40;;;;;;;39.42;14.96;99257.53;5070746;28;20039;-47
2022/06/10 09:36:44;;;;;;;10.40;1.95;;;;;;;39.28;14.43;99258.16;5092355;28;20031;-47
2022/06/10 09:42:23;;;;;;;12.27;2.13;;;;;;;39.02;14.83;99259.13;5093783;28;20058;-49
2022/06/10 09:44:58;;;;;;;7.68;1.50;;;;;;;38.96;14.63;99250.41;5092173;28;20080;-47
2022/06/10 09:47:30;;;;;;;8.02;1.92;;;;;;;38.56;15.10;99256.66;5092150;28;20024;-49
2022/06/10 09:50:04;;;;;;;12.65;2.58;;;;;;;38.00;14.54;99249.25;5093444;28;20043;-48
2022/06/10 09:52:56;;;;;;;12.15;1.80;;;;;;;37.49;14.82;99254.00;5092529;28;20493;-49
2022/06/10 09:56:00;;;;;;;8.57;1.80;;;;;;;37.19;15.35;99256.63;5093142;28;20386;-49
2022/06/10 09:58:53;;;;;;;11.80;1.80;;;;;;;37.35;14.50;99246.34;5067848;28;20100;-47
2022/06/10 10:17:46;;;;;;;4.00;1.20;;;;;;;37.31;14.90;99233.75;5094300;22;20592;-50
2022/06/10 10:20:32;;;;;;;7.47;1.77;;;;;;;36.96;15.46;99238.22;5013025;28;20503;-49
2022/06/10 10:23:23;;;;;;;8.18;1.73;;;;;;;37.18;16.12;99233.16;5013025;28;20022;-49
2022/06/10 10:25:51;;;;;;;5.65;1.60;;;;;;;37.12;15.46;99224.44;4995199;28;20060;-49
2022/06/10 10:28:28;;;;;;;12.32;1.65;;;;;;;36.87;15.65;99229.47;5012852;28;20021;-49
2022/06/10 10:31:18;;;;;;;9.57;1.10;;;;;;;37.08;15.82;99229.03;5013139;28;20287;-49
2022/06/10 10:33:47;;;;;;;15.25;2.25;;;;;;;37.20;16.05;99230.84;5012829;28;20026;-49
2022/06/10 10:36:32;;;;;;;10.27;2.03;;;;;;;37.31;16.03;99223.59;5012715;28;20423;-50
2022/06/10 10:39:21;;;;;;;9.10;1.50;;;;;;;37.20;15.96;99221.84;5012723;28;20033;-50
2022/06/10 10:41:49;;;;;;;12.63;2.00;;;;;;;37.60;16.04;99212.31;4984724;28;20037;-49
2022/06/10 10:44:30;;;;;;;8.43;2.05;;;;;;;38.05;15.50;99218.78;4994914;28;20029;-49
2022/06/10 10:47:13;;;;;;;9.70;1.83;;;;;;;38.02;15.62;99219.53;5012532;28;20030;-50
2022/06/10 10:50:03;;;;;;;13.40;2.35;;;;;;;38.72;15.44;99218.81;4994905;28;20037;-49
2022/06/10 10:52:42;;;;;;;4.00;1.35;;;;;;;38.77;14.29;99212.19;5012502;28;20030;-48
2022/06/10 10:55:14;;;;;;;6.90;1.40;;;;;;;37.63;15.33;99225.25;5012492;28;20030;-50
2022/06/10 10:58:28;;;;;;;4.50;1.20;;;;;;;36.79;16.11;99234.03;4994714;28;20033;-49
2022/06/10 11:01:06;;;;;;;15.43;2.65;;;;;;;36.74;16.44;99217.09;5012597;28;20036;-50
2022/06/10 11:03:51;;;;;;;4.25;1.13;;;;;;;37.17;15.76;99223.38;5012252;28;20022;-49
2022/06/10 11:06:28;;;;;;;8.02;2.13;;;;;;;37.09;16.21;99222.41;4994642;28;20516;-50
2022/06/10 11:08:58;;;;;;;14.68;2.80;;;;;;;37.12;16.42;99207.25;5012373;28;20041;-50
2022/06/10 11:11:32;;;;;;;13.23;2.15;;;;;;;36.73;16.05;99215.53;5012549;28;20022;-49
2022/06/10 11:14:05;;;;;;;9.57;1.88;;;;;;;36.29;16.36;99213.13;5012313;28;20053;-49
2022/06/10 11:17:11;;;;;;;20.97;11.07;;;;;;;36.73;15.97;99219.06;5011964;28;20061;-49
2022/06/10 11:19:41;;;;;;;48.25;5.78;;;;;;;37.02;16.14;99221.50;4974459;28;20045;-50
2022/06/10 11:22:22;;;;;;;34.38;3.97;;;;;;;37.24;16.20;99222.69;5012095;28;20376;-49
2022/06/10 11:24:53;;;;;;;81.53;7.30;;;;;;;37.48;16.02;99227.75;5012022;28;20049;-49
2022/06/10 11:27:32;;;;;;;67.82;6.20;;;;;;;37.48;15.66;99227.75;4994457;28;20041;-50
2022/06/10 11:30:11;;;;;;;40.80;3.85;;;;;;;37.71;15.75;99208.56;5012090;28;20117;-49
2022/06/10 11:32:58;;;;;;;36.97;4.40;;;;;;;37.48;16.01;99205.84;4994355;28;20030;-49
2022/06/10 11:36:05;;;;;;;28.17;3.63;;;;;;;36.95;16.40;99208.50;4994381;28;20048;-49
2022/06/10 11:38:35;;;;;;;20.70;3.40;;;;;;;37.18;16.59;99203.03;5011779;28;20096;-49
2022/06/10 11:41:24;;;;;;;38.22;3.85;;;;;;;37.70;16.68;99204.22;4994253;28;20029;-48
2022/06/10 11:44:00;;;;;;;14.95;2.40;;;;;;;37.83;15.72;99187.56;5011940;28;20026;-50
2022/06/10 11:46:33;;;;;;;20.65;2.20;;;;;;;37.77;16.14;99200.78;5011840;28;20030;-50
2022/06/10 11:49:01;;;;;;;;;;;;;;;38.25;16.17;99187.31;5012342;28;20030;-50
2022/06/10 11:51:35;;;;;;;16.30;2.50;;;;;;;38.65;15.33;99188.56;5011841;28;19964;-50
2022/06/10 11:54:26;;;;;;;27.17;2.90;;;;;;;38.79;14.98;99192.63;5011841;28;20053;-49
2022/06/10 12:00:21;;;;;;;46.47;6.53;;;;;;;37.73;16.04;99186.25;5011838;28;20040;-49
2022/06/10 12:03:07;;;;;;;44.72;5.50;;;;;;;37.13;16.54;99195.16;5011760;28;20022;-50
2022/06/10 12:05:58;;;;;;;74.78;8.80;;;;;;;37.01;16.74;99187.06;4993971;28;20041;-49
2022/06/10 12:08:54;;;;;;;55.10;7.25;;;;;;;37.07;16.70;99189.16;5011737;28;20030;-50
2022/06/10 12:11:46;;;;;;;40.60;4.57;;;;;;;36.96;17.13;99185.44;5011699;28;20482;-49
2022/06/10 12:14:37;;;;;;;55.08;6.53;;;;;;;36.98;17.35;99174.91;4994067;28;20622;-49
2022/06/10 12:17:16;;;;;;;60.38;7.68;;;;;;;36.94;16.94;99172.13;5015017;28;20514;-48
2022/06/10 12:19:57;;;;;;;70.13;7.38;;;;;;;36.72;17.55;99170.97;5015295;28;20033;-48
2022/06/10 12:22:26;;;;;;;36.63;5.20;;;;;;;36.88;17.52;99176.31;5015245;28;20025;-47
2022/06/10 12:24:54;;;;;;;34.72;2.97;;;;;;;36.66;17.87;99164.22;4997843;28;20402;-47
2022/06/10 12:27:39;;;;;;;31.52;3.40;;;;;;;36.16;17.90;99171.47;5014976;28;20022;-48
2022/06/10 12:30:10;;;;;;;20.70;3.10;;;;;;;35.94;18.19;99167.47;4997588;28;20057;-48
2022/06/10 12:33:00;;;;;;;31.40;5.05;;;;;;;36.11;18.42;99164.31;4997445;28;20092;-47
2022/06/10 12:35:36;;;;;;;11.95;1.77;;;;;;;36.21;18.44;99143.84;5014991;28;20034;-48
2022/06/10 12:38:24;;;;;;;10.93;1.80;;;;;;;35.89;18.12;99157.63;4997380;28;20026;-47